TR-0014 weather

Aksaray Airport
Aksaray, Aksaray Province, Turkey

Public forecast

Using degrees Celsius for public forecast. Weather courtesy of forecast.io.

Closest aviation weather report (METAR) to Aksaray Airport

Closest report is Nev┼čehir Kapadokya Airport, 43.8 nm (81.1 km) NE. Retrieved 2020/05/27 10:20 UTC (29 minutes ago):

LTAZ 271020Z 20013KT 170V240 9999 SCT040 28/03 Q1013

Closest aviation forecast (TAF) to Aksaray Airport

Closest forecast is Nev┼čehir Kapadokya Airport, 43.8 nm (81.1 km) NE. Retrieved 2020/05/27 06:03 UTC (5 hours ago):

TAF LTAZ 270440Z 2706/2806 11008KT CAVOK BECMG 2707/2710 19015KT SCT040 TEMPO 2711/2715 19020G30KT -SHRA FEW030CB BKN040 BECMG 2718/2721 VRB02KT CAVOK